Flight Track Log - Related Links

Times and Time Zones

All times are in EDT time to prevent confusion due to time zone crossing. See the N520RP flight status page for this flight to view local times or setup timezone preferences in your user account.

Time Position Orientation Groundspeed Altitude Reporting Facility
EDT Latitude Longitude Course Direction KTS MPH feet Rate Location/Type
Fri 06:22:25 PM 37.7811 -97.2128 11° North 163 188 4,400  Level Kansas City Center
Fri 06:23:16 PM 37.8225 -97.2047 North 197 227 8,400 4,875 Climbing Kansas City Center
Fri 06:24:17 PM 37.8558 -97.2514 312° West 254 292 13,500 3,168 Climbing Kansas City Center
Fri 06:25:21 PM 37.7817 -97.3164 215° Southwest 347 399 15,000 3,000 Climbing Kansas City Center
Fri 06:26:23 PM 37.6775 -97.3333 187° South 374 430 19,800 3,744 Climbing Kansas City Center
Fri 06:27:26 PM 37.5544 -97.3314 179° South 403 464 22,800 2,244 Climbing Kansas City Center
Fri 06:28:26 PM 37.4406 -97.2500 150° Southeast 468 539 24,400 2,016 Climbing Kansas City Center
Fri 06:29:28 PM 37.3197 -97.1644 151° Southeast 489 563 26,900 2,208 Climbing Kansas City Center
Fri 06:30:31 PM 37.1947 -97.0775 151° Southeast 501 577 29,000 1,008 Climbing Kansas City Center
Fri 06:31:33 PM 37.0669 -96.9875 151° Southeast 514 592 29,000  Level Kansas City Center
Fri 06:32:36 PM 36.9361 -96.8972 151° Southeast 526 605 29,000  Level Kansas City Center
Fri 06:33:38 PM 36.7828 -96.7889 150° Southeast 524 603 29,000  Level Kansas City Center
Fri 06:34:38 PM 36.6550 -96.7000 151° Southeast 525 604 29,000  Level Kansas City Center
Fri 06:35:42 PM 36.5258 -96.6108 151° Southeast 530 610 29,000  Level Kansas City Center
Fri 06:36:43 PM 36.3967 -96.5231 151° Southeast 530 610 29,000  Level Kansas City Center
Fri 06:37:44 PM 36.2675 -96.4344 151° Southeast 531 611 29,000  Level Kansas City Center
Fri 06:38:47 PM 36.1119 -96.3292 151° Southeast 533 613 29,000  Level Kansas City Center
Fri 06:39:49 PM 35.9833 -96.2414 151° Southeast 531 611 29,000  Level Kansas City Center
Fri 06:40:50 PM 35.8547 -96.1556 152° Southeast 530 610 29,000  Level Kansas City Center
Fri 06:41:54 PM 35.7264 -96.0689 151° Southeast 528 608 29,000  Level Kansas City Center
Fri 06:42:56 PM 35.5989 -95.9831 151° Southeast 526 605 29,000  Level Kansas City Center
Fri 06:43:52 PM 35.4575 -95.8897 152° Southeast 526 605 29,000  Level Fort Worth Center
Fri 06:44:51 PM 35.3439 -95.8153 152° Southeast 519 597 29,000  Level Fort Worth Center
Fri 06:45:51 PM 35.2156 -95.7289 151° Southeast 519 597 29,000  Level Fort Worth Center
Fri 06:46:51 PM 35.0894 -95.6475 152° Southeast 524 603 29,000  Level Fort Worth Center
Fri 06:47:51 PM 34.9628 -95.5589 150° Southeast 524 603 29,000  Level Fort Worth Center
Fri 06:48:51 PM 34.8364 -95.4758 152° Southeast 519 597 29,000  Level Fort Worth Center
Fri 06:49:51 PM 34.7100 -95.3953 152° Southeast 519 597 29,000  Level Fort Worth Center
Fri 06:50:51 PM 34.5708 -95.3078 153° Southeast 519 597 29,000  Level Fort Worth Center
Fri 06:51:51 PM 34.4425 -95.2353 155° Southeast 513 590 29,000  Level Fort Worth Center
Fri 06:52:52 PM 34.3200 -95.1581 152° Southeast 508 585 29,000 -550 Level Fort Worth Center
Fri 06:53:51 PM 34.1997 -95.0833 153° Southeast 496 571 27,900 -1,563 Descending Fort Worth Center
Fri 06:54:51 PM 34.0781 -95.0439 165° South 461 531 25,900 -1,934 Descending Fort Worth Center
Fri 06:55:52 PM 33.9881 -95.1439 223° Southwest 387 445 24,000 -950 Descending Fort Worth Center
Fri 06:56:51 PM 33.9192 -95.2608 235° Southwest 397 457 24,000  Level Fort Worth Center
Fri 06:57:51 PM 33.8461 -95.3803 234° Southwest 411 473 24,000 -347 Level Fort Worth Center
Fri 06:58:52 PM 33.7747 -95.4994 234° Southwest 440 506 23,300 -950 Descending Fort Worth Center
Fri 06:59:51 PM 33.7158 -95.5981 234° Southwest 430 495 22,100 -1,513 Descending Fort Worth Center
Fri 07:00:51 PM 33.6483 -95.7092 234° Southwest 424 488 20,300 -1,884 Descending Fort Worth Center
Fri 07:01:52 PM 33.5831 -95.8203 235° Southwest 416 479 18,300 -1,950 Descending Fort Worth Center
Fri 07:02:51 PM 33.5175 -95.9236 233° Southwest 403 464 16,400 -1,966 Descending Fort Worth Center
Fri 07:03:51 PM 33.4500 -96.0367 234° Southwest 390 449 14,400 -1,835 Descending Fort Worth Center
Fri 07:04:52 PM 33.3925 -96.1272 233° Southwest 385 443 12,700 -1,700 Descending Fort Worth Center
Fri 07:05:51 PM 33.3308 -96.2250 233° Southwest 375 432 11,000 -1,361 Descending Fort Worth Center
Fri 07:06:51 PM 33.2878 -96.2953 234° Southwest 313 360 10,000 -1,200 Descending Fort Worth Center
Fri 07:07:51 PM 33.2361 -96.3778 233° Southwest 297 342 8,600 -1,350 Descending Fort Worth Center
Fri 07:08:51 PM 33.1908 -96.4453 231° Southwest 289 333 7,300 -1,300 Descending Fort Worth Center
Fri 07:09:51 PM 33.1181 -96.5006 212° Southwest 294 338 6,000 -1,150 Descending Fort Worth Center
Fri 07:10:51 PM 33.0536 -96.5161 191° South 271 312 5,000 -500 Descending Fort Worth Center
Fri 07:11:51 PM 32.9703 -96.5369 192° South 271 312 5,000  Level Fort Worth Center
Fri 07:12:51 PM 32.8972 -96.5550 192° South 276 318 5,000 -149 Level Fort Worth Center
Fri 07:13:52 PM 32.8286 -96.5803 197° South 270 311 4,700 -500 Descending Fort Worth Center
Fri 07:14:51 PM 32.7767 -96.6328 220° Southwest 252 290 4,000 -818 Descending Fort Worth Center
Fri 07:15:42 PM 32.7500 -96.6833 238° Southwest 226 260 3,200 -536 Descending Dallas / Fort Worth TRACON
Fri 07:16:43 PM 32.7667 -96.7500 287° West 197 227 3,000 -645 Descending Dallas / Fort Worth TRACON
Fri 07:17:43 PM 32.8000 -96.7833 320° Northwest 182 209 1,900 -1,043 Descending Dallas / Fort Worth TRACON
Fri 07:18:38 PM 32.8333 -96.8167 320° Northwest 163 188 1,000 -982 Descending Dallas / Fort Worth TRACON

Login

Don't have an account? Register now (free) for customized features, flight alerts, and more!